createdAt,value
2018-11-12T00:00:45.968Z,84.59
2018-11-12T00:03:17.781Z,84.66
2018-11-12T00:05:49.564Z,85.39
2018-11-12T00:08:21.567Z,85.99
2018-11-12T00:10:53.347Z,85.75
2018-11-12T00:13:25.195Z,85.76
2018-11-12T00:15:56.977Z,85.50
2018-11-12T00:18:28.855Z,85.50
2018-11-12T00:21:00.645Z,85.29
2018-11-12T00:23:32.475Z,85.96
2018-11-12T00:26:04.608Z,85.55
2018-11-12T00:28:41.073Z,84.85
2018-11-12T00:31:12.879Z,84.99
2018-11-12T00:33:44.694Z,85.34
2018-11-12T00:36:16.549Z,86.14
2018-11-12T00:38:48.394Z,86.92
2018-11-12T00:41:20.173Z,86.90
2018-11-12T00:43:51.998Z,86.83
2018-11-12T00:46:23.808Z,86.61
2018-11-12T00:48:55.696Z,87.39
2018-11-12T00:51:27.505Z,86.85
2018-11-12T00:53:59.305Z,88.04
2018-11-12T00:56:31.306Z,87.80
2018-11-12T00:59:03.139Z,86.72
2018-11-12T01:01:34.950Z,86.20
2018-11-12T01:04:07.170Z,86.83
2018-11-12T01:06:38.874Z,86.54
2018-11-12T01:09:12.480Z,86.53
2018-11-12T01:11:44.278Z,86.56
2018-11-12T01:14:16.120Z,87.18
2018-11-12T01:16:47.907Z,87.53
2018-11-12T01:19:19.744Z,86.43
2018-11-12T01:21:52.136Z,86.92
2018-11-12T01:24:23.943Z,88.34
2018-11-12T01:26:55.743Z,88.32
2018-11-12T01:29:27.561Z,88.21
2018-11-12T01:31:59.372Z,88.74
2018-11-12T01:34:31.174Z,88.58
2018-11-12T01:37:05.719Z,87.75
2018-11-12T01:39:37.660Z,88.59
2018-11-12T01:42:09.533Z,88.50
2018-11-12T01:44:41.305Z,89.00
2018-11-12T01:47:13.098Z,88.40
2018-11-12T01:49:44.941Z,88.90
2018-11-12T01:52:16.730Z,88.28
2018-11-12T01:54:48.548Z,87.91
2018-11-12T01:57:20.314Z,88.12
2018-11-12T01:59:52.116Z,87.55
2018-11-12T02:02:23.894Z,87.35
2018-11-12T02:04:55.833Z,87.44
2018-11-12T02:07:27.494Z,87.38
2018-11-12T02:09:59.344Z,87.82
2018-11-12T02:12:31.150Z,87.73
2018-11-12T02:15:02.976Z,87.65
2018-11-12T02:17:34.766Z,87.51
2018-11-12T02:20:07.873Z,87.93
2018-11-12T02:22:39.661Z,87.92
2018-11-12T02:25:12.384Z,87.63
2018-11-12T02:27:44.178Z,88.04
2018-11-12T02:30:36.181Z,87.59
2018-11-12T02:33:07.948Z,87.35
2018-11-12T02:35:39.737Z,87.17
2018-11-12T02:38:11.702Z,88.11
2018-11-12T02:40:43.590Z,88.47
2018-11-12T02:43:15.381Z,88.48
2018-11-12T02:45:47.200Z,87.54
2018-11-12T02:48:18.988Z,87.00
2018-11-12T02:50:50.805Z,86.84
2018-11-12T02:53:22.588Z,87.89
2018-11-12T02:55:54.518Z,88.53
2018-11-12T02:58:26.303Z,87.40
2018-11-12T03:01:00.781Z,87.16
2018-11-12T03:03:32.589Z,87.36
2018-11-12T03:06:04.416Z,87.53
2018-11-12T03:08:36.197Z,87.51
2018-11-12T03:11:07.983Z,87.82
2018-11-12T03:13:39.781Z,87.58
2018-11-12T03:16:11.754Z,86.94
2018-11-12T03:18:43.612Z,87.10
2018-11-12T03:21:15.435Z,87.08
2018-11-12T03:23:47.228Z,86.61
2018-11-12T03:26:19.038Z,86.52
2018-11-12T03:28:50.843Z,86.93
2018-11-12T03:31:22.825Z,86.44
2018-11-12T03:33:54.623Z,86.42
2018-11-12T03:36:26.452Z,86.68
2018-11-12T03:38:58.229Z,87.79
2018-11-12T03:41:30.042Z,87.90
2018-11-12T03:44:01.839Z,86.38
2018-11-12T03:46:33.676Z,87.05
2018-11-12T03:49:06.256Z,87.24
2018-11-12T03:51:38.080Z,86.72
2018-11-12T03:54:09.895Z,87.26
2018-11-12T03:56:41.736Z,86.83
2018-11-12T03:59:13.511Z,86.49
2018-11-12T04:01:46.150Z,86.11
2018-11-12T04:04:18.469Z,87.13
2018-11-12T04:06:50.307Z,86.74
2018-11-12T04:09:22.122Z,86.28
2018-11-12T04:11:54.073Z,86.88
2018-11-12T04:14:25.881Z,85.93
2018-11-12T04:16:57.666Z,86.15
2018-11-12T04:19:29.477Z,86.66
2018-11-12T04:22:01.304Z,86.65
2018-11-12T04:24:33.163Z,86.86
2018-11-12T04:27:04.977Z,86.73
2018-11-12T04:29:36.754Z,87.26
2018-11-12T04:32:08.600Z,87.17
2018-11-12T04:34:40.377Z,86.76
2018-11-12T04:37:12.218Z,87.28
2018-11-12T04:39:43.986Z,86.38
2018-11-12T04:42:15.819Z,86.70
2018-11-12T04:44:47.587Z,85.73
2018-11-12T04:47:19.395Z,85.62
2018-11-12T04:49:51.196Z,85.43
2018-11-12T04:52:23.014Z,86.29
2018-11-12T04:57:26.859Z,86.27
2018-11-12T04:59:58.711Z,86.56
2018-11-12T05:02:31.383Z,86.87
2018-11-12T05:05:03.184Z,87.13
2018-11-12T05:07:35.092Z,87.43
2018-11-12T05:10:09.192Z,86.31
2018-11-12T05:12:41.689Z,86.07
2018-11-12T05:15:16.175Z,86.18
2018-11-12T05:17:48.019Z,86.67
2018-11-12T05:20:21.329Z,87.45
2018-11-12T05:22:53.267Z,86.28
2018-11-12T05:25:25.078Z,86.39
2018-11-12T05:27:57.002Z,86.39
2018-11-12T05:30:29.805Z,86.48
2018-11-12T05:33:01.713Z,86.65
2018-11-12T05:35:33.581Z,86.59
2018-11-12T05:38:05.626Z,87.16
2018-11-12T05:40:37.434Z,87.07
2018-11-12T05:43:09.255Z,86.27
2018-11-12T05:45:41.034Z,86.49
2018-11-12T05:48:12.920Z,86.50
2018-11-12T05:50:44.730Z,85.84
2018-11-12T05:53:16.605Z,86.24
2018-11-12T05:55:48.457Z,86.32
2018-11-12T05:58:20.279Z,86.36
2018-11-12T06:00:52.097Z,87.98
2018-11-12T06:03:23.991Z,87.40
2018-11-12T06:05:55.848Z,86.23
2018-11-12T06:08:27.669Z,86.39
2018-11-12T06:10:59.539Z,87.24
2018-11-12T06:13:31.457Z,86.95
2018-11-12T06:16:03.267Z,86.30
2018-11-12T06:18:35.148Z,86.74
2018-11-12T06:21:07.298Z,85.94
2018-11-12T06:23:39.095Z,86.31
2018-11-12T06:26:10.909Z,87.28
2018-11-12T06:28:42.745Z,86.95
2018-11-12T06:31:14.674Z,86.65
2018-11-12T06:33:46.414Z,86.12
2018-11-12T06:36:18.325Z,86.65
2018-11-12T06:38:50.277Z,86.22
2018-11-12T06:41:22.060Z,85.61
2018-11-12T06:43:53.959Z,85.12
2018-11-12T06:46:25.808Z,84.92
2018-11-12T06:48:57.760Z,85.51
2018-11-12T06:51:29.720Z,86.24
2018-11-12T06:54:01.625Z,87.82
2018-11-12T06:56:33.543Z,88.97
2018-11-12T06:59:05.351Z,88.91
2018-11-12T07:01:37.323Z,88.20
2018-11-12T07:04:09.152Z,86.39
2018-11-12T07:06:40.957Z,85.56
2018-11-12T07:09:13.909Z,85.50
2018-11-12T07:11:45.723Z,86.03
2018-11-12T07:14:20.683Z,85.89
2018-11-12T07:17:10.206Z,85.23
2018-11-12T07:19:44.941Z,85.39
2018-11-12T07:22:16.806Z,84.71
2018-11-12T07:24:48.638Z,84.59
2018-11-12T07:27:20.458Z,85.18
2018-11-12T07:29:52.295Z,84.64
2018-11-12T07:32:24.097Z,83.19
2018-11-12T07:34:55.904Z,81.77
2018-11-12T07:37:27.734Z,80.48
2018-11-12T07:39:59.698Z,80.86
2018-11-12T07:42:31.655Z,80.99
2018-11-12T07:45:03.599Z,81.74
2018-11-12T07:47:35.571Z,80.64
2018-11-12T07:50:13.867Z,81.62
2018-11-12T07:52:45.851Z,80.41
2018-11-12T07:55:22.760Z,78.89
2018-11-12T07:57:55.512Z,79.39
2018-11-12T08:00:28.727Z,79.84
2018-11-12T08:03:07.828Z,79.52
2018-11-12T08:05:40.051Z,79.20
2018-11-12T08:08:12.077Z,78.67
2018-11-12T08:10:43.900Z,78.34
2018-11-12T08:13:15.697Z,77.23
2018-11-12T08:15:47.543Z,77.49
2018-11-12T08:18:19.416Z,77.27
2018-11-12T08:20:51.252Z,77.01
2018-11-12T08:23:23.171Z,75.19
2018-11-12T08:25:55.126Z,76.36
2018-11-12T08:28:26.868Z,76.76
2018-11-12T08:30:58.749Z,76.21
2018-11-12T08:33:30.648Z,75.97
2018-11-12T08:36:02.701Z,75.88
2018-11-12T08:38:34.398Z,76.54
2018-11-12T08:41:06.416Z,75.48
2018-11-12T08:43:38.185Z,73.60
2018-11-12T08:46:10.093Z,73.08
2018-11-12T08:48:42.090Z,73.08
2018-11-12T08:51:13.872Z,72.82
2018-11-12T08:53:45.735Z,72.15
2018-11-12T08:56:17.650Z,71.44
2018-11-12T08:58:52.673Z,71.70
2018-11-12T09:01:24.669Z,71.67
2018-11-12T09:03:56.505Z,71.46
2018-11-12T09:06:28.337Z,70.71
2018-11-12T09:09:00.168Z,69.74
2018-11-12T09:11:32.059Z,68.21
2018-11-12T09:14:04.187Z,67.71
2018-11-12T09:16:36.148Z,67.01
2018-11-12T09:19:08.541Z,65.61
2018-11-12T09:21:40.543Z,65.44
2018-11-12T09:24:12.401Z,65.46
2018-11-12T09:26:44.565Z,65.00
2018-11-12T09:29:16.442Z,64.33
2018-11-12T09:31:48.369Z,64.50
2018-11-12T09:34:20.314Z,63.22
2018-11-12T09:36:52.239Z,62.58
2018-11-12T09:39:24.109Z,62.25
2018-11-12T09:41:55.979Z,61.46
2018-11-12T09:44:27.936Z,60.24
2018-11-12T09:46:59.769Z,59.68
2018-11-12T09:49:31.683Z,59.74
2018-11-12T09:52:03.791Z,59.87
2018-11-12T09:54:35.858Z,59.31
2018-11-12T09:57:07.662Z,57.72
2018-11-12T09:59:39.449Z,57.69
2018-11-12T10:02:11.985Z,58.51
2018-11-12T10:04:44.639Z,58.22
2018-11-12T10:07:16.386Z,58.66
2018-11-12T10:09:49.996Z,58.90
2018-11-12T10:12:21.385Z,58.34
2018-11-12T10:14:52.896Z,58.07
2018-11-12T10:17:25.411Z,58.03
2018-11-12T10:19:54.524Z,57.43
2018-11-12T10:22:26.385Z,57.32
2018-11-12T10:24:58.187Z,57.15
2018-11-12T10:27:30.025Z,56.46
2018-11-12T10:30:01.996Z,55.92
2018-11-12T10:32:33.883Z,56.85
2018-11-12T10:35:05.990Z,56.01
2018-11-12T10:37:38.343Z,56.14
2018-11-12T10:40:17.289Z,55.60
2018-11-12T10:42:49.380Z,56.40
2018-11-12T10:45:31.083Z,56.58
2018-11-12T10:48:03.076Z,55.99
2018-11-12T10:50:35.006Z,56.39
2018-11-12T10:53:07.217Z,55.58
2018-11-12T10:55:39.148Z,55.64
2018-11-12T10:58:10.954Z,55.00
2018-11-12T11:01:00.381Z,54.14
2018-11-12T11:03:54.183Z,54.43
2018-11-12T11:06:28.247Z,54.02
2018-11-12T11:09:00.131Z,53.99
2018-11-12T11:11:31.944Z,53.63
2018-11-12T11:14:03.815Z,53.08
2018-11-12T11:16:35.640Z,53.31
2018-11-12T11:19:08.182Z,53.08
2018-11-12T11:21:40.001Z,53.77
2018-11-12T11:24:11.877Z,53.88
2018-11-12T11:26:43.752Z,53.39
2018-11-12T11:29:15.663Z,53.57
2018-11-12T11:31:47.546Z,53.38
2018-11-12T11:34:19.466Z,52.96
2018-11-12T11:36:51.278Z,53.47
2018-11-12T11:39:23.068Z,53.42
2018-11-12T11:41:54.891Z,53.39
2018-11-12T11:44:26.753Z,54.21
2018-11-12T11:46:58.567Z,54.15
2018-11-12T11:49:30.598Z,53.03
2018-11-12T11:52:02.547Z,53.27
2018-11-12T11:54:34.466Z,53.80
2018-11-12T11:57:06.587Z,52.82
2018-11-12T11:59:38.435Z,53.63
2018-11-12T12:02:10.385Z,53.19
2018-11-12T12:04:42.204Z,52.86
2018-11-12T12:07:14.018Z,53.31
2018-11-12T12:09:46.021Z,53.13
2018-11-12T12:12:17.776Z,52.48
2018-11-12T12:14:49.681Z,52.03
2018-11-12T12:17:21.537Z,51.29
2018-11-12T12:19:53.448Z,51.65
2018-11-12T12:22:25.266Z,51.37
2018-11-12T12:24:57.267Z,51.16
2018-11-12T12:27:29.019Z,52.43
2018-11-12T12:30:00.936Z,51.51
2018-11-12T12:32:32.959Z,50.75
2018-11-12T12:35:04.823Z,51.09
2018-11-12T12:37:36.849Z,50.16
2018-11-12T12:40:11.488Z,49.51
2018-11-12T12:42:43.336Z,49.44
2018-11-12T12:45:16.752Z,49.96
2018-11-12T12:47:48.994Z,49.72
2018-11-12T12:50:21.476Z,49.50
2018-11-12T12:52:53.321Z,49.50
2018-11-12T12:55:27.458Z,49.00
2018-11-12T12:57:59.273Z,47.68
2018-11-12T13:00:31.163Z,48.07
2018-11-12T13:03:03.018Z,48.61
2018-11-12T13:05:34.930Z,48.06
2018-11-12T13:08:06.902Z,47.39
2018-11-12T13:10:38.827Z,47.06
2018-11-12T13:13:11.693Z,46.76
2018-11-12T13:15:43.623Z,45.95
2018-11-12T13:18:15.489Z,45.74
2018-11-12T13:20:47.453Z,46.08
2018-11-12T13:23:21.723Z,46.21
2018-11-12T13:25:53.577Z,45.55
2018-11-12T13:28:25.518Z,45.53
2018-11-12T13:30:57.356Z,45.18
2018-11-12T13:33:29.197Z,45.38
2018-11-12T13:36:01.177Z,45.18
2018-11-12T13:38:33.092Z,45.42
2018-11-12T13:41:04.937Z,45.94
2018-11-12T13:43:36.881Z,45.97
2018-11-12T13:46:08.897Z,45.56
2018-11-12T13:48:46.871Z,45.36
2018-11-12T13:51:19.512Z,45.39
2018-11-12T13:53:51.435Z,45.84
2018-11-12T13:56:23.593Z,45.91
2018-11-12T13:58:55.539Z,46.02
2018-11-12T14:01:27.316Z,45.67
2018-11-12T14:03:59.160Z,45.69
2018-11-12T14:06:31.094Z,46.93
2018-11-12T14:09:02.898Z,46.07
2018-11-12T14:11:34.801Z,46.66
2018-11-12T14:14:07.301Z,46.97
2018-11-12T14:16:38.943Z,46.80
2018-11-12T14:19:13.291Z,49.20
2018-11-12T14:21:45.300Z,54.24
2018-11-12T14:24:17.133Z,56.89
2018-11-12T14:26:49.091Z,57.76
2018-11-12T14:29:21.062Z,58.85
2018-11-12T14:31:52.929Z,58.62
2018-11-12T14:34:24.773Z,59.95
2018-11-12T14:36:56.678Z,60.45
2018-11-12T14:39:28.577Z,59.73
2018-11-12T14:42:00.403Z,59.97
2018-11-12T14:44:32.257Z,60.68
2018-11-12T14:47:04.172Z,61.31
2018-11-12T14:49:36.090Z,61.43
2018-11-12T14:52:08.033Z,62.30
2018-11-12T14:54:39.912Z,62.51
2018-11-12T14:57:11.837Z,62.19
2018-11-12T14:59:43.752Z,63.70
2018-11-12T15:02:15.635Z,64.23
2018-11-12T15:04:47.503Z,64.36
2018-11-12T15:07:19.464Z,63.75
2018-11-12T15:09:51.491Z,64.03
2018-11-12T15:12:23.424Z,63.95
2018-11-12T15:14:55.357Z,64.11
2018-11-12T15:17:29.835Z,64.27
2018-11-12T15:20:01.726Z,65.06
2018-11-12T15:22:33.648Z,64.42
2018-11-12T15:25:05.947Z,64.70
2018-11-12T15:27:37.846Z,64.92
2018-11-12T15:30:14.135Z,65.42
2018-11-12T15:32:46.940Z,65.97
2018-11-12T15:35:18.805Z,65.60
2018-11-12T15:37:51.145Z,66.84
2018-11-12T15:40:22.924Z,67.00
2018-11-12T15:42:54.811Z,67.61
2018-11-12T15:45:26.901Z,68.29
2018-11-12T15:47:58.762Z,68.82
2018-11-12T15:50:36.223Z,69.05
2018-11-12T15:53:08.090Z,70.23
2018-11-12T15:55:39.969Z,70.55
2018-11-12T15:58:12.076Z,71.07
2018-11-12T16:00:44.012Z,70.54
2018-11-12T16:03:15.861Z,71.24
2018-11-12T16:05:47.804Z,71.18
2018-11-12T16:08:19.816Z,71.71
2018-11-12T16:10:51.666Z,72.18
2018-11-12T16:13:23.420Z,72.37
2018-11-12T16:15:55.269Z,72.81
2018-11-12T16:18:27.128Z,73.30
2018-11-12T16:20:59.004Z,73.11
2018-11-12T16:23:30.967Z,73.18
2018-11-12T16:26:02.804Z,73.61
2018-11-12T16:28:34.677Z,74.30
2018-11-12T16:31:06.944Z,74.50
2018-11-12T16:33:41.041Z,73.72
2018-11-12T16:36:12.949Z,73.61
2018-11-12T16:38:44.954Z,74.79
2018-11-12T16:41:16.820Z,75.17
2018-11-12T16:43:48.786Z,76.19
2018-11-12T16:46:20.703Z,76.55
2018-11-12T16:48:52.684Z,76.42
2018-11-12T16:51:24.672Z,76.63
2018-11-12T16:53:56.478Z,76.53
2018-11-12T16:56:28.325Z,76.52
2018-11-12T16:59:00.258Z,76.75
2018-11-12T17:01:32.183Z,76.76
2018-11-12T17:04:03.894Z,77.20
2018-11-12T17:06:35.903Z,77.45
2018-11-12T17:09:14.255Z,77.27
2018-11-12T17:11:46.142Z,77.69
2018-11-12T17:14:18.034Z,77.75
2018-11-12T17:16:49.882Z,78.07
2018-11-12T17:19:21.826Z,78.32
2018-11-12T17:21:53.745Z,78.30
2018-11-12T17:24:25.730Z,78.39
2018-11-12T17:27:00.283Z,78.55
2018-11-12T17:29:32.213Z,78.33
2018-11-12T17:32:04.071Z,78.66
2018-11-12T17:34:35.892Z,78.83
2018-11-12T17:37:07.965Z,79.03
2018-11-12T17:39:39.789Z,78.86
2018-11-12T17:42:11.693Z,79.43
2018-11-12T17:44:43.517Z,79.50
2018-11-12T17:47:15.392Z,79.83
2018-11-12T17:49:47.314Z,80.08
2018-11-12T17:52:19.241Z,79.86
2018-11-12T17:54:51.108Z,79.66
2018-11-12T17:57:23.032Z,79.47
2018-11-12T17:59:54.935Z,79.41
2018-11-12T18:02:26.849Z,79.77
2018-11-12T18:04:58.762Z,80.93
2018-11-12T18:07:30.692Z,81.61
2018-11-12T18:10:02.449Z,80.63
2018-11-12T18:12:34.417Z,80.31
2018-11-12T18:15:07.759Z,80.86
2018-11-12T18:17:39.644Z,82.22
2018-11-12T18:20:17.424Z,80.92
2018-11-12T18:22:49.844Z,81.25
2018-11-12T18:25:21.749Z,81.03
2018-11-12T18:27:54.375Z,81.27
2018-11-12T18:30:27.802Z,81.13
2018-11-12T18:33:00.030Z,80.77
2018-11-12T18:35:31.900Z,81.17
2018-11-12T18:38:03.912Z,81.17
2018-11-12T18:40:35.592Z,81.54
2018-11-12T18:43:07.907Z,81.43
2018-11-12T18:45:39.754Z,82.67
2018-11-12T18:48:11.619Z,81.83
2018-11-12T18:50:43.503Z,81.74
2018-11-12T18:53:15.381Z,81.50
2018-11-12T18:55:47.357Z,83.17
2018-11-12T18:58:19.252Z,82.51
2018-11-12T19:00:51.125Z,83.19
2018-11-12T19:03:23.068Z,82.07
2018-11-12T19:05:55.085Z,81.85
2018-11-12T19:08:26.944Z,82.05
2018-11-12T19:10:58.916Z,81.84
2018-11-12T19:13:32.160Z,81.70
2018-11-12T19:16:04.191Z,81.75
2018-11-12T19:18:36.044Z,82.21
2018-11-12T19:21:08.248Z,81.99
2018-11-12T19:23:40.047Z,81.93
2018-11-12T19:26:11.841Z,82.71
2018-11-12T19:28:43.670Z,83.54
2018-11-12T19:31:15.563Z,83.55
2018-11-12T19:33:47.377Z,83.20
2018-11-12T19:36:19.352Z,83.42
2018-11-12T19:38:51.203Z,83.11
2018-11-12T19:41:23.052Z,82.75
2018-11-12T19:43:54.896Z,83.02
2018-11-12T19:46:26.724Z,83.07
2018-11-12T19:48:58.556Z,83.07
2018-11-12T19:51:30.504Z,83.25
2018-11-12T19:54:02.247Z,83.68
2018-11-12T19:56:34.075Z,82.86
2018-11-12T19:59:06.246Z,83.30
2018-11-12T20:01:38.029Z,83.19
2018-11-12T20:04:09.899Z,83.51
2018-11-12T20:06:41.785Z,83.76
2018-11-12T20:09:13.628Z,84.05
2018-11-12T20:11:45.577Z,83.55
2018-11-12T20:14:17.504Z,83.84
2018-11-12T20:16:49.339Z,84.06
2018-11-12T20:19:21.175Z,83.39
2018-11-12T20:21:53.098Z,83.54
2018-11-12T20:24:24.936Z,84.26
2018-11-12T20:26:56.845Z,83.79
2018-11-12T20:29:29.230Z,83.87
2018-11-12T20:32:01.121Z,83.60
2018-11-12T20:34:32.946Z,83.61
2018-11-12T20:37:04.750Z,83.65
2018-11-12T20:39:36.618Z,83.77
2018-11-12T20:42:08.817Z,83.89
2018-11-12T20:44:40.673Z,83.72
2018-11-12T20:47:12.479Z,83.92
2018-11-12T20:49:44.298Z,83.73
2018-11-12T20:52:16.243Z,83.82
2018-11-12T20:54:47.998Z,84.27
2018-11-12T20:57:19.824Z,84.16
2018-11-12T20:59:53.791Z,84.78
2018-11-12T21:02:25.653Z,85.15
2018-11-12T21:04:57.472Z,84.05
2018-11-12T21:07:29.287Z,83.98
2018-11-12T21:10:01.121Z,84.04
2018-11-12T21:12:32.967Z,83.62
2018-11-12T21:15:07.822Z,83.85
2018-11-12T21:17:36.700Z,83.75
2018-11-12T21:20:10.725Z,84.23
2018-11-12T21:22:42.697Z,84.17
2018-11-12T21:25:15.867Z,84.22
2018-11-12T21:27:47.763Z,84.61
2018-11-12T21:30:21.126Z,84.13
2018-11-12T21:32:52.974Z,83.98
2018-11-12T21:35:24.853Z,84.60
2018-11-12T21:37:58.107Z,84.07
2018-11-12T21:40:30.208Z,84.20
2018-11-12T21:43:02.123Z,84.27
2018-11-12T21:45:33.855Z,83.88
2018-11-12T21:48:05.902Z,83.39
2018-11-12T21:50:37.699Z,83.85
2018-11-12T21:53:09.512Z,83.63
2018-11-12T21:55:41.333Z,83.87
2018-11-12T21:58:13.153Z,83.72
2018-11-12T22:00:45.005Z,84.37
2018-11-12T22:03:16.846Z,84.95
2018-11-12T22:05:48.669Z,84.52
2018-11-12T22:08:20.557Z,84.17
2018-11-12T22:10:52.415Z,83.78
2018-11-12T22:13:24.243Z,83.75
2018-11-12T22:15:56.028Z,83.40
2018-11-12T22:18:27.866Z,83.72
2018-11-12T22:20:59.685Z,83.74
2018-11-12T22:23:31.547Z,84.10
2018-11-12T22:26:03.372Z,84.12
2018-11-12T22:28:35.208Z,84.33
2018-11-12T22:31:07.194Z,84.34
2018-11-12T22:33:39.027Z,84.07
2018-11-12T22:36:10.847Z,84.14
2018-11-12T22:38:42.651Z,84.17
2018-11-12T22:41:14.461Z,84.17
2018-11-12T22:43:46.340Z,84.17
2018-11-12T22:46:18.174Z,84.02
2018-11-12T22:48:49.997Z,83.50
2018-11-12T22:51:21.804Z,84.30
2018-11-12T22:53:53.735Z,84.27
2018-11-12T22:56:25.471Z,84.19
2018-11-12T22:58:57.288Z,84.35
2018-11-12T23:01:29.131Z,84.49
2018-11-12T23:04:01.020Z,84.60
2018-11-12T23:06:32.812Z,84.98
2018-11-12T23:09:14.124Z,84.17
2018-11-12T23:11:45.936Z,84.62
2018-11-12T23:14:17.792Z,84.43
2018-11-12T23:16:49.621Z,84.30
2018-11-12T23:19:21.576Z,84.55
2018-11-12T23:21:53.288Z,84.77
2018-11-12T23:24:25.228Z,84.45
2018-11-12T23:26:57.451Z,84.65
2018-11-12T23:29:29.267Z,84.47
2018-11-12T23:32:01.092Z,84.96
2018-11-12T23:34:32.903Z,84.41
2018-11-12T23:37:04.698Z,84.55
2018-11-12T23:39:36.527Z,84.69
2018-11-12T23:42:08.543Z,84.66
2018-11-12T23:44:40.342Z,84.60
2018-11-12T23:47:12.137Z,84.63
2018-11-12T23:49:43.959Z,84.57
2018-11-12T23:52:15.777Z,84.82
2018-11-12T23:54:47.601Z,84.77
2018-11-12T23:57:19.449Z,84.60
2018-11-12T23:59:51.245Z,84.87
